BAW256 MROC-EGLL
Flight info
| Callsign | BAW256 |
|---|---|
| Flight time | N/A |
| Altitude | 60000 |
| Route | NANJO3R RADON UB767 PESTO DCT KANEX UM330 ENAMO DCT GRATX/M080F431 DCT JIMAC DCT QINCY DCT SOORY DCT 42N050W 44N040W 46N030W 48N020W 48N015W DCT OMOKO DCT GUNSO DCT GAPLI/N0463F431 DCT SIDDI DCT DAWLY DCT ELRIP DCT OTMET |
| Aircraft | CONC/H-SDFGIRWY/S |
Departure
| Time | 2026-05-05 04:49 |
|---|---|
| Airport | Juan Santamaría International Airport (MROC) |
Arrival
| Time | N/A |
|---|---|
| Airport | London Heathrow Airport (EGLL) |
| Time | Latitude | Longitude | Altitude | Speed | Heading |
|---|---|---|---|---|---|
| 2026-05-05 03:44 | 9.99830 | -84.20159 | 3041 ft | 0 kts | 339° |
| 2026-05-05 04:33 | 9.99809 | -84.20159 | 3041 ft | 4 kts | 315° |
| 2026-05-05 04:33 | 9.99787 | -84.20150 | 3042 ft | 5 kts | 280° |
| 2026-05-05 04:33 | 9.99779 | -84.20126 | 3042 ft | 4 kts | 260° |
| 2026-05-05 04:33 | 9.99783 | -84.20099 | 3041 ft | 4 kts | 253° |
| 2026-05-05 04:34 | 9.99790 | -84.20072 | 3041 ft | 4 kts | 250° |
| 2026-05-05 04:34 | 9.99795 | -84.20059 | 3040 ft | 3 kts | 250° |
| 2026-05-05 04:40 | 9.99789 | -84.20076 | 3040 ft | 4 kts | 250° |
| 2026-05-05 04:40 | 9.99777 | -84.20110 | 3040 ft | 6 kts | 249° |
| 2026-05-05 04:41 | 9.99760 | -84.20156 | 3040 ft | 8 kts | 249° |
| 2026-05-05 04:41 | 9.99738 | -84.20215 | 3041 ft | 10 kts | 249° |
| 2026-05-05 04:41 | 9.99711 | -84.20286 | 3042 ft | 12 kts | 249° |
| 2026-05-05 04:41 | 9.99683 | -84.20362 | 3040 ft | 11 kts | 249° |
| 2026-05-05 04:42 | 9.99654 | -84.20437 | 3040 ft | 12 kts | 249° |
| 2026-05-05 04:42 | 9.99623 | -84.20520 | 3041 ft | 13 kts | 249° |
| 2026-05-05 04:42 | 9.99596 | -84.20595 | 3041 ft | 12 kts | 249° |
| 2026-05-05 04:42 | 9.99565 | -84.20676 | 3041 ft | 13 kts | 249° |
| 2026-05-05 04:43 | 9.99532 | -84.20762 | 3040 ft | 14 kts | 249° |
| 2026-05-05 04:43 | 9.99497 | -84.20856 | 3040 ft | 15 kts | 249° |
| 2026-05-05 04:43 | 9.99455 | -84.20971 | 3035 ft | 21 kts | 249° |
| 2026-05-05 04:43 | 9.99401 | -84.21113 | 3015 ft | 22 kts | 249° |
| 2026-05-05 04:44 | 9.99339 | -84.21277 | 3006 ft | 27 kts | 249° |
| 2026-05-05 04:44 | 9.99282 | -84.21431 | 2995 ft | 22 kts | 249° |
| 2026-05-05 04:44 | 9.99217 | -84.21601 | 2982 ft | 27 kts | 249° |
| 2026-05-05 04:44 | 9.99162 | -84.21748 | 2974 ft | 20 kts | 249° |
| 2026-05-05 04:45 | 9.99112 | -84.21881 | 2968 ft | 16 kts | 249° |
| 2026-05-05 04:45 | 9.99096 | -84.21971 | 2955 ft | 9 kts | 274° |
| 2026-05-05 04:45 | 9.99104 | -84.22043 | 2948 ft | 12 kts | 276° |
| 2026-05-05 04:45 | 9.99086 | -84.22127 | 2944 ft | 11 kts | 250° |
| 2026-05-05 04:46 | 9.99049 | -84.22191 | 2948 ft | 12 kts | 228° |
| 2026-05-05 04:46 | 9.98975 | -84.22193 | 2943 ft | 10 kts | 162° |
| 2026-05-05 04:46 | 9.98928 | -84.22163 | 2948 ft | 6 kts | 126° |
| 2026-05-05 04:46 | 9.98925 | -84.22133 | 2952 ft | 3 kts | 88° |
| 2026-05-05 04:47 | 9.98929 | -84.22116 | 2951 ft | 3 kts | 79° |
| 2026-05-05 04:47 | 9.98934 | -84.22103 | 2943 ft | 0 kts | 69° |
| 2026-05-05 04:47 | 9.98935 | -84.22101 | 2943 ft | 5 kts | 69° |
| 2026-05-05 04:48 | 9.99040 | -84.21816 | 2976 ft | 88 kts | 68° |
| 2026-05-05 04:48 | 9.99353 | -84.20981 | 3024 ft | 147 kts | 69° |
| 2026-05-05 04:48 | 9.99723 | -84.19997 | 3045 ft | 171 kts | 69° |
| 2026-05-05 04:48 | 10.00231 | -84.18650 | 3533 ft | 230 kts | 69° |
| 2026-05-05 04:49 | 10.00872 | -84.17036 | 4272 ft | 260 kts | 67° |
| 2026-05-05 04:49 | 10.01571 | -84.15278 | 4947 ft | 274 kts | 67° |
| 2026-05-05 04:49 | 10.02265 | -84.13509 | 6146 ft | 269 kts | 68° |
| 2026-05-05 04:49 | 10.02955 | -84.11755 | 6956 ft | 265 kts | 68° |
| 2026-05-05 04:50 | 10.03626 | -84.10055 | 7638 ft | 254 kts | 69° |
| 2026-05-05 04:50 | 10.04269 | -84.08426 | 8325 ft | 241 kts | 68° |
| 2026-05-05 04:50 | 10.04930 | -84.06931 | 9043 ft | 229 kts | 53° |
| 2026-05-05 04:50 | 10.06181 | -84.06025 | 9738 ft | 224 kts | 13° |
| 2026-05-05 04:51 | 10.07713 | -84.06182 | 10244 ft | 226 kts | 329° |
| 2026-05-05 04:51 | 10.08768 | -84.07322 | 10792 ft | 230 kts | 287° |
| 2026-05-05 04:51 | 10.09188 | -84.08799 | 11571 ft | 205 kts | 283° |
| 2026-05-05 04:51 | 10.09615 | -84.10203 | 11639 ft | 228 kts | 306° |
| 2026-05-05 04:52 | 10.10660 | -84.11545 | 12115 ft | 240 kts | 313° |
| 2026-05-05 04:52 | 10.11649 | -84.12671 | 13850 ft | 186 kts | 313° |
| 2026-05-05 04:52 | 10.12478 | -84.13613 | 14172 ft | 192 kts | 313° |
| 2026-05-05 04:52 | 10.13377 | -84.14885 | 12866 ft | 251 kts | 284° |
| 2026-05-05 04:53 | 10.13515 | -84.16776 | 12027 ft | 274 kts | 263° |
| 2026-05-05 04:53 | 10.13234 | -84.18597 | 12358 ft | 247 kts | 255° |
| 2026-05-05 04:53 | 10.12769 | -84.20217 | 12155 ft | 228 kts | 247° |
| 2026-05-05 04:53 | 10.12191 | -84.21828 | 10604 ft | 290 kts | 245° |
| 2026-05-05 04:54 | 10.11215 | -84.23854 | 10365 ft | 332 kts | 238° |
| 2026-05-05 04:54 | 10.09927 | -84.25869 | 11190 ft | 348 kts | 232° |
| 2026-05-05 04:54 | 10.08380 | -84.27814 | 12233 ft | 362 kts | 226° |
| 2026-05-05 04:54 | 10.06589 | -84.29661 | 13428 ft | 371 kts | 220° |
| 2026-05-05 04:55 | 10.04592 | -84.31359 | 14646 ft | 377 kts | 213° |
| 2026-05-05 04:55 | 10.02481 | -84.32965 | 15853 ft | 383 kts | 227° |
| 2026-05-05 04:55 | 10.01029 | -84.35217 | 17103 ft | 383 kts | 252° |
| 2026-05-05 04:55 | 10.00622 | -84.37849 | 18357 ft | 376 kts | 277° |
| 2026-05-05 04:56 | 10.01317 | -84.40358 | 19334 ft | 369 kts | 303° |
| 2026-05-05 04:56 | 10.02973 | -84.42298 | 20255 ft | 364 kts | 329° |
| 2026-05-05 04:56 | 10.05261 | -84.43314 | 21110 ft | 361 kts | 355° |
| 2026-05-05 04:56 | 10.07690 | -84.43254 | 21871 ft | 349 kts | 21° |
| 2026-05-05 04:57 | 10.09802 | -84.42134 | 22526 ft | 345 kts | 49° |
| 2026-05-05 04:57 | 10.11292 | -84.40254 | 23114 ft | 346 kts | 59° |
| 2026-05-05 04:57 | 10.12155 | -84.38890 | 23457 ft | 347 kts | 60° |
| 2026-05-05 04:57 | 10.13433 | -84.36814 | 23888 ft | 349 kts | 60° |
| 2026-05-05 04:58 | 10.15151 | -84.34051 | 24397 ft | 350 kts | 59° |
| 2026-05-05 04:58 | 10.16480 | -84.31986 | 24767 ft | 350 kts | 58° |
| 2026-05-05 04:58 | 10.17855 | -84.29939 | 25132 ft | 350 kts | 57° |
| 2026-05-05 04:58 | 10.18806 | -84.28573 | 25373 ft | 350 kts | 56° |
| 2026-05-05 04:59 | 10.20215 | -84.26624 | 25712 ft | 350 kts | 54° |
| 2026-05-05 04:59 | 10.21868 | -84.24802 | 25985 ft | 354 kts | 36° |
| 2026-05-05 04:59 | 10.23973 | -84.23446 | 26320 ft | 362 kts | 28° |
| 2026-05-05 04:59 | 10.26261 | -84.22331 | 26745 ft | 368 kts | 22° |
| 2026-05-05 05:00 | 10.28678 | -84.21407 | 27209 ft | 373 kts | 20° |
| 2026-05-05 05:00 | 10.31135 | -84.20539 | 27694 ft | 376 kts | 19° |
| 2026-05-05 05:00 | 10.33626 | -84.19680 | 28194 ft | 379 kts | 19° |
| 2026-05-05 05:00 | 10.36138 | -84.18814 | 28707 ft | 382 kts | 20° |
| 2026-05-05 05:01 | 10.38665 | -84.17933 | 29216 ft | 385 kts | 20° |
| 2026-05-05 05:01 | 10.41208 | -84.17042 | 29737 ft | 388 kts | 20° |
| 2026-05-05 05:01 | 10.43770 | -84.16143 | 30218 ft | 390 kts | 20° |
| 2026-05-05 05:01 | 10.46346 | -84.15241 | 30651 ft | 393 kts | 20° |
| 2026-05-05 05:02 | 10.48910 | -84.14343 | 31090 ft | 396 kts | 20° |
| 2026-05-05 05:02 | 10.51553 | -84.13417 | 31545 ft | 398 kts | 20° |
| 2026-05-05 05:02 | 10.54142 | -84.12509 | 32002 ft | 400 kts | 20° |
| 2026-05-05 05:02 | 10.56819 | -84.11571 | 32472 ft | 402 kts | 20° |
| 2026-05-05 05:03 | 10.59470 | -84.10642 | 32928 ft | 404 kts | 20° |
| 2026-05-05 05:03 | 10.62099 | -84.09720 | 33379 ft | 406 kts | 20° |
| 2026-05-05 05:03 | 10.64776 | -84.08781 | 33849 ft | 408 kts | 20° |
| 2026-05-05 05:03 | 10.67468 | -84.07837 | 34276 ft | 410 kts | 20° |
| 2026-05-05 05:04 | 10.70189 | -84.06916 | 34667 ft | 412 kts | 15° |
| 2026-05-05 05:04 | 10.72969 | -84.06174 | 35060 ft | 415 kts | 14° |
| 2026-05-05 05:04 | 10.75791 | -84.05496 | 35446 ft | 417 kts | 13° |
| 2026-05-05 05:04 | 10.78628 | -84.04863 | 35836 ft | 419 kts | 12° |
| 2026-05-05 05:05 | 10.81494 | -84.04271 | 36220 ft | 421 kts | 11° |
| 2026-05-05 05:05 | 10.84368 | -84.03726 | 36587 ft | 423 kts | 10° |
| 2026-05-05 05:05 | 10.87272 | -84.03223 | 36962 ft | 425 kts | 9° |
| 2026-05-05 05:05 | 10.90211 | -84.02762 | 37335 ft | 428 kts | 8° |
| 2026-05-05 05:06 | 10.93027 | -84.02366 | 37690 ft | 430 kts | 7° |
| 2026-05-05 05:06 | 10.96002 | -84.01994 | 38055 ft | 432 kts | 6° |
| 2026-05-05 05:06 | 10.99002 | -84.01667 | 38419 ft | 434 kts | 5° |
| 2026-05-05 05:06 | 11.01974 | -84.01391 | 38743 ft | 433 kts | 5° |
| 2026-05-05 05:07 | 11.04967 | -84.01159 | 38975 ft | 427 kts | 4° |
| 2026-05-05 05:07 | 11.07904 | -84.00978 | 39092 ft | 421 kts | 2° |
| 2026-05-05 05:07 | 11.10826 | -84.00846 | 39133 ft | 419 kts | 1° |
| 2026-05-05 05:08 | 11.16635 | -84.00725 | 39148 ft | 419 kts | 360° |
| 2026-05-05 05:08 | 11.22470 | -84.00795 | 39139 ft | 419 kts | 358° |